Time;durP1;ratioP1;P1;durP2;ratioP2;P2;SDS_P1;SDS_P2;PMS_P1;PMS_P2;Temp;Humidity;BMP_temperature;BMP_pressure;BME280_temperature;BME280_humidity;BME280_pressure;Samples;Min_cycle;Max_cycle;Signal;HPM_P1;HPM_P2
2024/01/23 00:00:39;;;;;;;90.40;48.70;;;;;;;0.75;57.22;95701.56;5109747;28;20197;-66
2024/01/23 00:03:06;;;;;;;88.17;47.37;;;;;;;0.73;57.17;95698.25;5111185;28;20309;-66
2024/01/23 00:05:33;;;;;;;98.77;48.43;;;;;;;0.71;57.18;95697.50;5110674;28;20181;-66
2024/01/23 00:08:00;;;;;;;95.90;49.10;;;;;;;0.71;57.36;95705.06;5110772;28;20235;-68
2024/01/23 00:10:26;;;;;;;83.50;45.63;;;;;;;0.48;57.18;95671.44;5110504;28;20196;-70
2024/01/23 00:12:53;;;;;;;82.83;44.90;;;;;;;0.69;57.14;95701.75;5110450;28;20212;-67
2024/01/23 00:15:20;;;;;;;97.77;48.00;;;;;;;0.68;56.94;95700.94;5110367;28;20200;-70
2024/01/23 00:17:48;;;;;;;89.10;46.33;;;;;;;0.67;57.30;95701.00;5110587;28;20181;-68
2024/01/23 00:20:15;;;;;;;92.63;46.47;;;;;;;0.37;57.06;95648.31;5110866;28;20185;-68
2024/01/23 00:22:41;;;;;;;98.30;47.93;;;;;;;0.64;57.25;95691.84;5109916;28;20237;-63
2024/01/23 00:25:09;;;;;;;92.63;48.10;;;;;;;0.57;56.98;95684.59;5109712;28;20189;-65
2024/01/23 00:27:36;;;;;;;94.67;48.27;;;;;;;0.53;57.17;95672.97;5110199;28;20227;-66
2024/01/23 00:30:03;;;;;;;93.93;49.03;;;;;;;0.57;57.03;95679.56;5110412;28;20177;-64
2024/01/23 00:32:31;;;;;;;91.07;48.30;;;;;;;0.59;56.97;95677.78;5110120;28;20270;-68
2024/01/23 00:34:59;;;;;;;97.20;47.23;;;;;;;0.57;56.80;95675.34;5110072;28;20220;-65
2024/01/23 00:37:26;;;;;;;93.30;48.10;;;;;;;0.36;56.68;95646.69;5109638;28;20204;-66
2024/01/23 00:39:54;;;;;;;87.40;45.33;;;;;;;0.55;56.76;95673.72;5109914;28;20192;-65
2024/01/23 00:42:20;;;;;;;85.20;44.33;;;;;;;0.54;57.07;95677.13;5109537;28;20283;-67
2024/01/23 00:44:46;;;;;;;89.03;44.40;;;;;;;0.41;56.84;95654.91;5110216;28;20580;-68
2024/01/23 00:47:13;;;;;;;86.23;44.27;;;;;;;0.50;56.73;95681.44;5110196;28;20201;-67
2024/01/23 00:49:40;;;;;;;85.53;43.17;;;;;;;0.48;56.95;95676.47;5110119;28;20189;-66
2024/01/23 00:52:08;;;;;;;85.83;44.07;;;;;;;0.47;56.83;95666.44;5109563;28;20257;-65
2024/01/23 00:54:35;;;;;;;82.73;43.60;;;;;;;0.37;56.79;95650.03;5110126;28;20665;-66
2024/01/23 00:57:05;;;;;;;80.30;41.37;;;;;;;0.42;56.85;95654.03;5111295;28;20228;-69
2024/01/23 00:59:31;;;;;;;84.30;42.20;;;;;;;0.41;56.67;95657.41;5096572;28;20242;-66
2024/01/23 01:01:58;;;;;;;83.23;41.57;;;;;;;0.39;57.04;95656.66;5094601;28;20201;-70
2024/01/23 01:04:25;;;;;;;86.47;43.33;;;;;;;0.38;56.89;95646.63;5108425;28;20192;-67
2024/01/23 01:06:52;;;;;;;73.07;38.20;;;;;;;0.27;56.70;95626.06;5109984;28;20212;-65
2024/01/23 01:09:20;;;;;;;78.47;39.43;;;;;;;0.08;56.60;95603.22;5109068;28;20238;-69
2024/01/23 01:11:47;;;;;;;80.17;40.13;;;;;;;0.32;56.95;95641.81;5109860;28;20309;-66
2024/01/23 01:14:14;;;;;;;80.33;40.43;;;;;;;0.32;56.96;95645.16;5109336;28;20192;-70
2024/01/23 01:16:40;;;;;;;72.40;37.70;;;;;;;0.14;56.86;95616.44;5109826;28;20693;-68
2024/01/23 01:19:07;;;;;;;68.20;36.50;;;;;;;0.30;56.85;95639.34;5109687;28;20310;-69
2024/01/23 01:21:34;;;;;;;82.07;39.43;;;;;;;0.21;56.66;95622.06;5109197;28;20196;-69
2024/01/23 01:24:01;;;;;;;78.20;38.93;;;;;;;0.07;56.50;95601.59;5109235;28;20185;-67
2024/01/23 01:26:29;;;;;;;72.57;38.97;;;;;;;0.24;56.71;95629.50;5109423;28;20276;-68
2024/01/23 01:28:56;;;;;;;72.80;38.00;;;;;;;0.17;56.62;95616.34;5109559;28;20192;-65
2024/01/23 01:31:23;;;;;;;76.07;38.67;;;;;;;-0.05;56.69;95591.06;5109527;28;20177;-65
2024/01/23 01:33:49;;;;;;;71.10;37.50;;;;;;;0.11;56.71;95616.53;5109555;28;20246;-66
2024/01/23 01:36:16;;;;;;;74.00;39.63;;;;;;;0.15;56.76;95618.06;5109366;28;20181;-68
2024/01/23 01:38:43;;;;;;;77.57;38.00;;;;;;;0.10;56.62;95616.59;5109420;28;20262;-67
2024/01/23 01:41:10;;;;;;;84.87;39.90;;;;;;;0.12;56.33;95614.81;5109779;28;20193;-68
2024/01/23 01:43:38;;;;;;;78.57;37.83;;;;;;;0.10;56.64;95612.38;5109637;28;20294;-65
2024/01/23 01:46:12;;;;;;;69.27;36.57;;;;;;;0.09;56.64;95612.44;5109253;28;20263;-68
2024/01/23 01:48:39;;;;;;;73.17;37.13;;;;;;;-0.24;56.55;95574.97;5109778;28;20615;-68
2024/01/23 01:51:06;;;;;;;79.27;38.97;;;;;;;-0.01;56.33;95610.22;5109589;28;20279;-64
2024/01/23 01:53:34;;;;;;;70.97;36.17;;;;;;;0.01;56.35;95612.69;5109236;28;20221;-64
2024/01/23 01:56:01;;;;;;;77.80;37.60;;;;;;;-0.05;56.25;95605.34;5108971;28;20319;-62
2024/01/23 01:58:29;;;;;;;76.43;36.10;;;;;;;-0.02;56.48;95615.28;5109378;28;20685;-67
2024/01/23 02:00:59;;;;;;;87.07;37.10;;;;;;;-0.08;56.32;95606.28;5108958;28;20700;-66
2024/01/23 02:03:26;;;;;;;70.70;34.77;;;;;;;-0.06;56.23;95609.53;5109607;28;20178;-66
2024/01/23 02:05:53;;;;;;;76.17;38.60;;;;;;;-0.08;56.42;95602.94;5108894;28;20193;-66
2024/01/23 02:08:21;;;;;;;77.00;36.70;;;;;;;-0.09;56.17;95606.31;5108824;28;20657;-63
2024/01/23 02:10:47;;;;;;;68.23;34.93;;;;;;;-0.11;56.20;95598.00;5109329;28;20581;-66
2024/01/23 02:13:14;;;;;;;74.80;35.97;;;;;;;-0.13;56.38;95597.22;5109444;28;20224;-64
2024/01/23 02:15:41;;;;;;;84.87;34.93;;;;;;;-0.15;56.37;95587.22;5109932;28;20752;-65
2024/01/23 02:18:09;;;;;;;75.50;36.13;;;;;;;-0.20;56.11;95585.75;5122271;28;20642;-67
2024/01/23 02:20:36;;;;;;;75.13;34.80;;;;;;;-0.18;56.13;95586.50;5113089;28;20818;-66
2024/01/23 02:23:03;;;;;;;74.20;35.47;;;;;;;-0.20;56.06;95583.25;5112519;28;20196;-66
2024/01/23 02:25:31;;;;;;;68.63;33.87;;;;;;;-0.34;56.30;95563.59;5112948;28;20257;-67
2024/01/23 02:28:00;;;;;;;66.80;33.83;;;;;;;-0.23;56.22;95583.31;5112429;28;20177;-66
2024/01/23 02:30:27;;;;;;;73.60;34.80;;;;;;;-0.62;56.17;95521.78;5112366;28;20280;-67
2024/01/23 02:32:54;;;;;;;66.40;34.53;;;;;;;-0.37;56.38;95562.00;5112393;28;20209;-62
2024/01/23 02:35:20;;;;;;;66.53;34.87;;;;;;;-0.27;56.13;95573.38;5112680;28;20272;-62
2024/01/23 02:37:47;;;;;;;73.43;33.50;;;;;;;-0.27;56.07;95565.00;5112136;28;20303;-61
2024/01/23 02:40:14;;;;;;;70.10;35.83;;;;;;;-0.28;56.51;95565.88;5112476;28;20200;-68
2024/01/23 02:42:42;;;;;;;71.23;32.47;;;;;;;-0.28;56.19;95554.13;5112220;28;20733;-68
2024/01/23 02:45:09;;;;;;;69.43;34.03;;;;;;;-0.29;55.98;95554.22;5112124;28;20239;-68
2024/01/23 02:47:36;;;;;;;66.53;32.63;;;;;;;-0.30;56.34;95560.09;5112339;28;20196;-68
2024/01/23 02:50:03;;;;;;;71.30;34.67;;;;;;;-0.31;56.40;95550.91;5112080;28;20200;-63
2024/01/23 02:52:31;;;;;;;74.30;34.83;;;;;;;-0.53;56.28;95518.13;5111890;28;20224;-67
2024/01/23 02:54:58;;;;;;;78.87;35.27;;;;;;;-0.82;56.27;95471.38;5111630;28;20185;-66
2024/01/23 02:57:25;;;;;;;68.27;32.10;;;;;;;-0.53;56.15;95510.59;5111917;28;20227;-65
2024/01/23 02:59:53;;;;;;;71.13;34.07;;;;;;;-0.56;56.29;95496.47;5112123;28;20238;-65
2024/01/23 03:02:20;;;;;;;70.40;34.70;;;;;;;-0.36;56.38;95535.97;5111689;28;20288;-67
2024/01/23 03:04:47;;;;;;;74.87;34.77;;;;;;;-0.43;56.38;95514.47;5111699;28;20193;-65
2024/01/23 03:07:13;;;;;;;67.30;33.83;;;;;;;-0.37;56.10;95524.31;5111672;28;20193;-66
2024/01/23 03:09:40;;;;;;;69.93;34.73;;;;;;;-0.36;56.35;95527.63;5111375;28;20204;-63
2024/01/23 03:12:15;;;;;;;74.73;33.80;;;;;;;-0.60;56.04;95482.38;5111531;28;20197;-67
2024/01/23 03:14:43;;;;;;;75.80;35.10;;;;;;;-0.37;56.03;95520.97;5111573;28;21070;-64
2024/01/23 03:17:11;;;;;;;73.77;34.80;;;;;;;-0.41;56.35;95516.91;5111578;28;20192;-64
2024/01/23 03:19:38;;;;;;;81.93;35.63;;;;;;;-0.38;56.35;95512.63;5111603;28;20200;-68
2024/01/23 03:22:06;;;;;;;69.53;34.43;;;;;;;-0.45;56.27;95505.31;5111601;28;20212;-65
2024/01/23 03:24:33;;;;;;;84.50;37.43;;;;;;;-0.40;56.42;95511.81;5111538;28;20200;-69
2024/01/23 03:27:01;;;;;;;69.63;37.23;;;;;;;-0.39;56.32;95505.09;5111573;28;20561;-66
2024/01/23 03:29:29;;;;;;;66.03;34.80;;;;;;;-0.39;56.18;95500.09;5110898;28;20197;-68
2024/01/23 03:31:56;;;;;;;75.87;35.57;;;;;;;-0.85;55.85;95424.59;5111316;28;20185;-65
2024/01/23 03:34:24;;;;;;;75.37;36.17;;;;;;;-0.42;56.35;95483.44;5111101;28;20697;-64
2024/01/23 03:36:52;;;;;;;74.27;35.33;;;;;;;-0.41;55.97;95481.75;5111577;28;20216;-66
2024/01/23 03:39:19;;;;;;;78.57;36.20;;;;;;;-0.42;56.08;95480.09;5111148;28;20240;-68
2024/01/23 03:41:45;;;;;;;64.63;33.63;;;;;;;-0.73;55.90;95433.44;5110964;28;20192;-66
2024/01/23 03:44:13;;;;;;;65.47;35.23;;;;;;;-0.68;55.83;95439.09;5111048;28;20646;-69
2024/01/23 03:46:39;;;;;;;76.47;36.77;;;;;;;-0.50;56.07;95470.31;5110729;28;20181;-70
2024/01/23 03:49:05;;;;;;;74.97;36.73;;;;;;;-0.45;55.85;95486.03;5111345;28;20291;-66
2024/01/23 03:51:33;;;;;;;68.70;35.67;;;;;;;-0.45;56.22;95468.47;5108682;28;20192;-65
2024/01/23 03:54:00;;;;;;;73.07;33.90;;;;;;;-0.53;56.18;95456.16;5111212;28;20220;-67
2024/01/23 03:56:27;;;;;;;67.10;35.77;;;;;;;-0.51;55.90;95461.97;5110729;28;20235;-66
2024/01/23 03:58:54;;;;;;;72.17;35.43;;;;;;;-1.08;56.27;95365.13;5111411;28;20192;-64
2024/01/23 04:01:21;;;;;;;80.33;36.23;;;;;;;-0.47;56.01;95464.38;5110472;28;20627;-66
2024/01/23 04:03:48;;;;;;;64.37;35.10;;;;;;;-0.47;56.11;95464.38;5111073;28;20192;-69
2024/01/23 04:06:14;;;;;;;73.70;35.70;;;;;;;-0.52;56.19;95455.31;5110564;28;20192;-65
2024/01/23 04:08:42;;;;;;;67.90;34.67;;;;;;;-0.49;56.25;95461.91;5110996;28;20197;-68
2024/01/23 04:11:09;;;;;;;78.93;34.37;;;;;;;-0.50;55.95;95460.25;5111037;28;20250;-69
2024/01/23 04:13:36;;;;;;;66.83;35.13;;;;;;;-0.50;56.11;95465.28;5109919;28;20213;-64
2024/01/23 04:16:05;;;;;;;75.67;35.77;;;;;;;-0.78;56.17;95430.22;5110488;28;20242;-66
2024/01/23 04:18:32;;;;;;;63.00;32.90;;;;;;;-0.62;55.90;95451.44;5110401;28;20193;-67
2024/01/23 04:20:59;;;;;;;66.50;32.97;;;;;;;-0.63;55.91;95454.03;5110606;28;20193;-69
2024/01/23 04:23:26;;;;;;;65.07;34.30;;;;;;;-0.63;56.12;95452.31;5109997;28;20185;-69
2024/01/23 04:25:54;;;;;;;61.90;32.53;;;;;;;-1.23;55.57;95358.09;5110670;28;20193;-69
2024/01/23 04:28:21;;;;;;;65.50;31.07;;;;;;;-0.57;55.87;95466.34;5110675;28;20181;-69
2024/01/23 04:30:52;;;;;;;63.93;30.40;;;;;;;-0.73;55.59;95432.56;5109932;28;20721;-68
2024/01/23 04:33:19;;;;;;;66.97;33.73;;;;;;;-0.67;55.72;95452.47;5109851;28;20700;-65
2024/01/23 04:35:46;;;;;;;63.70;31.83;;;;;;;-0.80;55.43;95430.28;5109721;28;20200;-67
2024/01/23 04:38:13;;;;;;;62.40;32.57;;;;;;;-0.73;55.66;95440.13;5109882;28;20654;-69
2024/01/23 04:40:40;;;;;;;67.07;31.87;;;;;;;-0.71;55.50;95439.19;5109922;28;20195;-69
2024/01/23 04:43:08;;;;;;;67.70;31.70;;;;;;;-0.89;55.58;95413.03;5110607;28;20650;-71
2024/01/23 04:45:35;;;;;;;63.43;32.73;;;;;;;-0.66;55.41;95459.13;5111439;28;20188;-70
2024/01/23 04:48:02;;;;;;;67.07;32.50;;;;;;;-0.68;55.73;95454.19;5117006;28;20238;-68
2024/01/23 04:50:28;;;;;;;67.70;31.53;;;;;;;-0.69;55.29;95459.22;5119464;28;20664;-68
2024/01/23 04:52:57;;;;;;;66.60;32.00;;;;;;;-0.72;55.61;95456.84;5118156;28;20212;-70
2024/01/23 04:55:24;;;;;;;69.97;32.07;;;;;;;-0.79;55.08;95451.19;5110002;28;20254;-67
2024/01/23 04:57:51;;;;;;;64.23;32.27;;;;;;;-0.88;55.50;95454.81;5109882;28;20231;-67
2024/01/23 05:00:19;;;;;;;63.07;31.20;;;;;;;-0.77;55.27;95465.34;5109851;28;20189;-69
2024/01/23 05:02:46;;;;;;;69.07;33.00;;;;;;;-0.78;55.43;95460.34;5109745;28;20181;-69
2024/01/23 05:05:13;;;;;;;63.40;31.40;;;;;;;-0.81;55.34;95455.47;5109692;28;20231;-67
2024/01/23 05:07:40;;;;;;;61.67;31.20;;;;;;;-0.87;55.16;95453.13;5109492;28;20189;-67
2024/01/23 05:10:07;;;;;;;62.07;33.23;;;;;;;-0.99;55.30;95443.47;5109684;28;20554;-69
2024/01/23 05:12:34;;;;;;;63.00;33.37;;;;;;;-0.86;55.36;95462.31;5109573;28;20212;-65
2024/01/23 05:15:03;;;;;;;68.93;32.90;;;;;;;-0.94;55.28;95446.69;5108925;28;20201;-62
2024/01/23 05:17:32;;;;;;;61.60;32.87;;;;;;;-0.90;55.09;95461.59;5109753;28;20216;-66
2024/01/23 05:19:58;;;;;;;64.20;33.40;;;;;;;-0.92;54.93;95460.81;5109001;28;20569;-64
2024/01/23 05:22:25;;;;;;;65.03;33.27;;;;;;;-0.93;55.45;95456.66;5110083;28;20209;-65
2024/01/23 05:24:52;;;;;;;63.50;32.73;;;;;;;-1.07;55.17;95431.22;5109818;28;20197;-66
2024/01/23 05:27:19;;;;;;;74.90;33.33;;;;;;;-1.16;55.25;95409.75;5109775;28;20185;-64
2024/01/23 05:29:46;;;;;;;56.90;31.73;;;;;;;-1.32;55.33;95384.31;5109975;28;20200;-64
2024/01/23 05:32:13;;;;;;;56.17;31.20;;;;;;;-1.24;55.17;95406.66;5109541;28;20188;-63
2024/01/23 05:34:41;;;;;;;54.90;30.90;;;;;;;-1.05;55.06;95442.81;5108980;28;20209;-68
2024/01/23 05:37:08;;;;;;;61.80;31.77;;;;;;;-0.98;55.25;95445.16;5109200;28;20189;-64
2024/01/23 05:39:37;;;;;;;64.80;32.07;;;;;;;-0.99;55.13;95439.31;5109096;28;20193;-63
2024/01/23 05:42:05;;;;;;;61.17;32.73;;;;;;;-1.00;54.95;95432.63;5109087;28;20702;-68
2024/01/23 05:44:32;;;;;;;64.83;34.00;;;;;;;-1.01;55.17;95438.53;5109386;28;20201;-66
2024/01/23 05:46:59;;;;;;;72.40;34.97;;;;;;;-1.06;54.93;95422.81;5109546;28;20184;-68
2024/01/23 05:49:26;;;;;;;65.90;34.10;;;;;;;-1.02;55.15;95424.34;5109128;28;20200;-67
2024/01/23 05:51:54;;;;;;;62.03;33.30;;;;;;;-1.03;54.99;95428.53;5109660;28;20626;-65
2024/01/23 05:54:21;;;;;;;55.57;30.67;;;;;;;-1.02;55.03;95422.66;5112680;28;20235;-64
2024/01/23 05:56:48;;;;;;;66.47;32.07;;;;;;;-1.01;55.15;95421.78;5112805;28;20644;-71
2024/01/23 05:59:15;;;;;;;60.17;32.77;;;;;;;-1.19;55.12;95391.44;5113393;28;20680;-67
2024/01/23 06:01:42;;;;;;;65.23;33.17;;;;;;;-0.99;55.07;95426.75;5113045;28;20193;-63
2024/01/23 06:04:10;;;;;;;66.90;31.97;;;;;;;-1.05;54.86;95415.22;5112083;28;20189;-67
2024/01/23 06:06:40;;;;;;;64.53;32.03;;;;;;;-0.95;55.11;95410.72;5112291;28;20173;-71
2024/01/23 06:09:09;;;;;;;48.07;24.60;;;;;;;0.00;97.82;95414.94;5113443;28;20273;-69
2024/01/23 06:11:36;;;;;;;61.47;29.60;;;;;;;0.58;93.05;95407.69;5113868;28;20260;-69
2024/01/23 06:14:03;;;;;;;55.03;27.73;;;;;;;0.72;84.15;95407.13;5112874;28;20308;-71
2024/01/23 06:16:30;;;;;;;51.87;27.47;;;;;;;0.82;74.16;95423.53;5112181;28;20323;-67
2024/01/23 06:18:57;;;;;;;53.63;28.90;;;;;;;0.78;69.85;95424.53;5112399;28;20215;-71
2024/01/23 06:21:23;;;;;;;59.43;31.03;;;;;;;0.74;67.99;95428.88;5113243;28;20238;-66
2024/01/23 06:23:50;;;;;;;63.43;31.13;;;;;;;0.47;66.86;95405.56;5112331;28;20200;-68
2024/01/23 06:26:19;;;;;;;56.50;31.40;;;;;;;0.66;66.12;95457.72;5112814;28;20212;-65
2024/01/23 06:28:46;;;;;;;58.27;33.37;;;;;;;0.62;65.52;95457.03;5112405;28;20246;-69
2024/01/23 06:31:13;;;;;;;56.23;33.10;;;;;;;0.60;64.85;95456.25;5112471;28;20289;-68
2024/01/23 06:33:40;;;;;;;59.30;31.77;;;;;;;0.61;64.23;95462.13;5112334;28;20208;-66
2024/01/23 06:36:07;;;;;;;70.63;35.23;;;;;;;0.66;63.97;95468.63;5112622;28;20269;-69
2024/01/23 06:38:35;;;;;;;72.27;36.33;;;;;;;0.75;63.40;95468.25;5112457;28;20664;-70
2024/01/23 06:41:01;;;;;;;75.50;36.43;;;;;;;0.79;62.99;95448.00;5112349;28;20681;-66
2024/01/23 06:43:29;;;;;;;76.37;38.10;;;;;;;1.17;62.34;95475.00;5112445;28;20185;-67
2024/01/23 06:45:57;;;;;;;74.13;36.40;;;;;;;1.38;61.98;95472.47;5112731;28;20255;-64
2024/01/23 06:48:24;;;;;;;77.50;39.93;;;;;;;0.86;61.26;95344.47;5112804;28;20213;-67
2024/01/23 06:50:51;;;;;;;82.50;40.90;;;;;;;2.00;60.87;95479.09;5112236;28;20246;-63
2024/01/23 06:53:17;;;;;;;79.53;43.00;;;;;;;2.27;60.34;95479.59;5112044;28;20193;-63
2024/01/23 06:55:44;;;;;;;78.70;42.00;;;;;;;2.47;60.05;95463.56;5111633;28;20197;-64
2024/01/23 06:58:11;;;;;;;85.27;42.83;;;;;;;2.94;59.71;95481.56;5112451;28;20199;-62
2024/01/23 07:00:39;;;;;;;79.33;41.13;;;;;;;3.34;59.29;95481.38;5111949;28;20196;-66
2024/01/23 07:03:08;;;;;;;82.00;44.07;;;;;;;3.65;58.91;95453.66;5112190;28;20231;-66
2024/01/23 07:05:34;;;;;;;82.57;42.37;;;;;;;4.21;58.78;95462.59;5112143;28;20301;-68
2024/01/23 07:08:02;;;;;;;75.77;41.17;;;;;;;4.69;58.57;95448.19;5112168;28;20189;-66
2024/01/23 07:10:30;;;;;;;81.97;43.17;;;;;;;5.17;58.23;95459.06;5111613;28;20235;-66
2024/01/23 07:12:56;;;;;;;78.30;43.00;;;;;;;5.44;57.86;95418.66;5111958;28;20217;-66
2024/01/23 07:15:23;;;;;;;82.10;44.40;;;;;;;6.16;57.51;95447.41;5111817;28;20216;-67
2024/01/23 07:17:53;;;;;;;77.23;43.50;;;;;;;6.63;57.08;95428.47;5112150;28;20193;-69
2024/01/23 07:20:20;;;;;;;77.37;43.97;;;;;;;7.18;56.50;95436.88;5112790;28;20193;-67
2024/01/23 07:22:46;;;;;;;81.67;44.03;;;;;;;7.22;55.71;95364.53;5114246;28;20200;-67
2024/01/23 07:25:13;;;;;;;80.13;45.77;;;;;;;8.05;54.92;95415.81;5123235;28;20212;-68
2024/01/23 07:27:40;;;;;;;78.43;46.63;;;;;;;8.57;54.22;95437.72;5118827;28;20193;-67
2024/01/23 07:30:08;;;;;;;86.00;45.80;;;;;;;9.03;53.46;95448.06;5112809;28;20189;-67
2024/01/23 07:32:35;;;;;;;78.47;46.10;;;;;;;9.34;52.74;95435.63;5111551;28;20211;-67
2024/01/23 07:35:03;;;;;;;78.87;45.13;;;;;;;9.94;51.79;95469.53;5111546;28;20705;-65
2024/01/23 07:37:30;;;;;;;76.53;43.80;;;;;;;10.38;51.10;95460.28;5111400;28;20181;-68
2024/01/23 07:39:58;;;;;;;75.90;44.97;;;;;;;10.74;50.53;95454.88;5111312;28;20672;-68
2024/01/23 07:42:24;;;;;;;74.97;43.87;;;;;;;11.14;49.78;95471.38;5111040;28;20189;-67
2024/01/23 07:44:51;;;;;;;81.70;45.80;;;;;;;11.48;48.82;95460.06;5111352;28;20561;-69
2024/01/23 07:47:19;;;;;;;83.93;45.27;;;;;;;11.77;48.57;95455.13;5111450;28;20233;-67
2024/01/23 07:49:46;;;;;;;83.03;46.00;;;;;;;12.11;47.98;95454.13;5111565;28;20642;-69
2024/01/23 07:52:19;;;;;;;76.00;46.77;;;;;;;12.41;47.33;95468.69;5111404;28;20203;-67
2024/01/23 07:54:46;;;;;;;80.03;46.57;;;;;;;12.66;46.76;95468.22;5111102;28;20289;-70
2024/01/23 07:57:13;;;;;;;80.90;46.80;;;;;;;12.61;46.51;95415.66;5110524;28;20221;-70
2024/01/23 07:59:40;;;;;;;82.80;46.90;;;;;;;13.13;46.07;95468.44;5111206;28;20185;-70
2024/01/23 08:02:07;;;;;;;79.13;47.00;;;;;;;13.29;45.20;95466.16;5111154;28;20688;-66
2024/01/23 08:04:34;;;;;;;74.40;46.70;;;;;;;13.38;44.75;95461.97;5110763;28;20671;-64
2024/01/23 08:07:00;;;;;;;71.30;45.60;;;;;;;13.33;44.53;95461.56;5110705;28;20601;-68
2024/01/23 08:09:29;;;;;;;77.37;46.03;;;;;;;13.14;44.19;95444.38;5110451;28;20177;-71
2024/01/23 08:11:55;;;;;;;85.60;49.47;;;;;;;13.16;44.00;95459.66;5110976;28;20200;-68
2024/01/23 08:14:22;;;;;;;86.37;50.40;;;;;;;13.00;43.83;95444.78;5109830;28;20220;-69
2024/01/23 08:16:49;;;;;;;81.87;48.37;;;;;;;12.84;43.43;95453.00;5110817;28;20181;-66
2024/01/23 08:19:16;;;;;;;79.20;49.97;;;;;;;12.40;43.48;95426.03;5110838;28;20558;-69
2024/01/23 08:21:44;;;;;;;77.50;47.50;;;;;;;12.22;43.43;95456.63;5110585;28;20201;-66
2024/01/23 08:24:10;;;;;;;84.27;49.63;;;;;;;11.94;43.50;95463.22;5111024;28;20201;-69
2024/01/23 08:26:39;;;;;;;80.50;47.97;;;;;;;11.63;43.15;95452.09;5110565;28;20649;-63
2024/01/23 08:29:06;;;;;;;76.80;46.63;;;;;;;11.39;43.03;95460.81;5110477;28;20284;-64
2024/01/23 08:31:32;;;;;;;82.30;47.87;;;;;;;11.06;42.88;95451.53;5110794;28;20184;-66
2024/01/23 08:33:59;;;;;;;80.47;47.53;;;;;;;10.85;42.88;95448.13;5110251;28;20545;-66
2024/01/23 08:36:27;;;;;;;77.27;45.40;;;;;;;10.47;43.09;95439.13;5110620;28;20181;-67
2024/01/23 08:38:54;;;;;;;80.20;46.33;;;;;;;10.44;43.01;95452.94;5110875;28;20188;-69
2024/01/23 08:41:20;;;;;;;82.23;46.90;;;;;;;10.37;42.91;95463.78;5110340;28;20200;-66
2024/01/23 08:43:49;;;;;;;87.83;47.70;;;;;;;10.36;42.92;95457.81;5110335;28;20655;-70
2024/01/23 08:46:15;;;;;;;86.50;50.00;;;;;;;10.66;42.30;95469.19;5110571;28;20201;-66
2024/01/23 08:48:42;;;;;;;84.67;46.27;;;;;;;10.68;42.09;95449.44;5110600;28;20185;-64
2024/01/23 08:51:10;;;;;;;89.13;48.70;;;;;;;10.53;41.87;95466.75;5109805;28;20188;-64
2024/01/23 08:53:37;;;;;;;81.27;47.70;;;;;;;10.36;41.77;95444.22;5110576;28;20222;-66
2024/01/23 08:56:04;;;;;;;83.50;48.57;;;;;;;10.25;41.95;95462.97;5109529;28;20240;-67
2024/01/23 08:58:31;;;;;;;87.80;47.77;;;;;;;9.77;42.18;95414.59;5110216;28;20526;-68
2024/01/23 09:00:59;;;;;;;81.37;48.07;;;;;;;9.79;42.38;95449.31;5109789;28;20185;-65
2024/01/23 09:03:26;;;;;;;83.67;50.40;;;;;;;9.59;42.59;95460.19;5110249;28;20658;-66
2024/01/23 09:05:53;;;;;;;85.43;49.67;;;;;;;9.42;42.77;95448.66;5109676;28;20195;-66
2024/01/23 09:08:20;;;;;;;86.47;49.00;;;;;;;9.20;42.91;95436.66;5110181;28;20207;-62
2024/01/23 09:10:49;;;;;;;86.63;48.20;;;;;;;9.06;42.90;95434.25;5110220;28;20193;-65
2024/01/23 09:13:17;;;;;;;88.73;48.20;;;;;;;8.96;43.18;95438.41;5110007;28;20253;-64
2024/01/23 09:15:44;;;;;;;89.73;48.77;;;;;;;8.84;43.34;95434.16;5109663;28;20636;-67
2024/01/23 09:18:12;;;;;;;91.07;50.50;;;;;;;8.50;43.48;95395.75;5109872;28;20196;-66
2024/01/23 09:20:39;;;;;;;93.77;52.50;;;;;;;8.56;43.61;95418.28;5109715;28;20650;-67
2024/01/23 09:23:06;;;;;;;92.97;51.77;;;;;;;8.51;43.40;95421.16;5109842;28;20189;-66
2024/01/23 09:25:32;;;;;;;89.60;48.93;;;;;;;8.43;43.70;95423.41;5110121;28;20193;-68
2024/01/23 09:27:59;;;;;;;96.80;51.07;;;;;;;8.37;43.76;95417.91;5113942;28;20199;-64
2024/01/23 09:30:26;;;;;;;91.27;49.30;;;;;;;8.07;43.84;95390.22;5114102;28;20589;-67
2024/01/23 09:32:53;;;;;;;90.27;50.27;;;;;;;8.24;43.94;95412.81;5113497;28;20189;-68
2024/01/23 09:35:21;;;;;;;88.20;50.23;;;;;;;8.18;44.01;95410.69;5113610;28;20208;-65
2024/01/23 09:37:48;;;;;;;94.40;49.63;;;;;;;8.11;44.08;95404.38;5113402;28;20189;-68
2024/01/23 09:40:15;;;;;;;90.50;50.97;;;;;;;7.99;44.01;95394.13;5113370;28;20200;-64
2024/01/23 09:42:43;;;;;;;91.00;47.30;;;;;;;8.05;44.09;95403.06;5113398;28;20196;-65
2024/01/23 09:45:19;;;;;;;89.77;51.03;;;;;;;7.90;44.40;95378.63;5113737;28;20279;-68
2024/01/23 09:47:47;;;;;;;83.00;47.83;;;;;;;7.99;44.23;95399.22;5113652;28;20189;-64
2024/01/23 09:50:14;;;;;;;92.43;49.27;;;;;;;8.00;44.46;95400.03;5114177;28;20224;-63
2024/01/23 09:52:44;;;;;;;90.50;49.23;;;;;;;7.95;44.35;95391.91;5112774;28;20564;-67
2024/01/23 09:55:11;;;;;;;92.53;51.63;;;;;;;8.00;44.27;95392.41;5113796;28;20267;-64
2024/01/23 09:57:39;;;;;;;87.13;50.83;;;;;;;7.98;44.50;95391.66;5117096;28;20232;-66
2024/01/23 10:00:11;;;;;;;88.00;50.03;;;;;;;7.42;44.49;95304.69;5121224;28;20177;-68
2024/01/23 10:02:39;;;;;;;90.23;50.93;;;;;;;7.97;44.26;95378.13;5113776;28;20201;-64
2024/01/23 10:05:08;;;;;;;98.30;52.23;;;;;;;7.99;44.35;95378.03;5113564;28;20193;-66
2024/01/23 10:07:36;;;;;;;95.50;52.27;;;;;;;8.01;44.46;95381.28;5113064;28;20220;-65
2024/01/23 10:10:13;;;;;;;94.83;51.07;;;;;;;7.98;44.58;95372.09;5112727;28;20278;-63
2024/01/23 10:12:40;;;;;;;89.20;51.27;;;;;;;8.06;44.47;95376.69;5113044;28;20279;-68
2024/01/23 10:15:11;;;;;;;96.77;52.13;;;;;;;8.08;44.53;95376.59;5112696;28;20312;-68
2024/01/23 10:17:38;;;;;;;88.80;50.53;;;;;;;8.08;44.46;95366.41;5114405;28;20212;-66
2024/01/23 10:20:06;;;;;;;86.60;51.37;;;;;;;8.10;44.30;95357.72;5114075;28;20578;-67
2024/01/23 10:22:34;;;;;;;88.33;50.77;;;;;;;8.14;44.30;95351.50;5112849;27;20196;-70
2024/01/23 10:25:01;;;;;;;93.40;51.03;;;;;;;8.18;44.49;95344.47;5112678;28;20220;-64
2024/01/23 10:27:31;;;;;;;90.83;50.10;;;;;;;7.58;44.24;95235.75;5113024;28;20261;-68
2024/01/23 10:29:58;;;;;;;89.97;52.03;;;;;;;8.21;44.32;95334.06;5112537;28;20178;-68
2024/01/23 10:32:29;;;;;;;91.73;52.50;;;;;;;8.14;44.42;95327.75;5112708;28;20181;-64
2024/01/23 10:34:56;;;;;;;97.23;53.60;;;;;;;8.13;44.32;95311.66;5112462;28;20224;-68
2024/01/23 10:37:23;;;;;;;102.67;55.20;;;;;;;8.30;44.44;95336.78;5111742;28;20210;-69
2024/01/23 10:39:51;;;;;;;110.27;56.23;;;;;;;8.22;44.22;95312.75;5112381;28;20189;-65
2024/01/23 10:42:19;;;;;;;91.93;52.70;;;;;;;8.17;44.21;95296.97;5112466;28;20683;-64
2024/01/23 10:44:50;;;;;;;96.83;54.93;;;;;;;8.42;44.13;95329.19;5112395;28;20196;-66
2024/01/23 10:47:16;;;;;;;101.07;56.33;;;;;;;8.45;44.13;95326.44;5112592;28;20189;-66
2024/01/23 10:49:44;;;;;;;102.23;55.80;;;;;;;8.50;44.22;95327.72;5112564;28;20200;-70
2024/01/23 10:52:16;;;;;;;97.83;55.07;;;;;;;8.54;44.06;95323.22;5112346;28;20558;-67
2024/01/23 10:54:45;;;;;;;101.73;55.80;;;;;;;8.56;44.06;95310.38;5111986;28;20196;-63
2024/01/23 10:57:24;;;;;;;104.33;55.93;;;;;;;8.46;44.14;95287.28;5111998;28;20712;-64
2024/01/23 10:59:52;;;;;;;102.23;53.57;;;;;;;8.63;44.06;95311.56;5112028;28;20238;-69
2024/01/23 11:02:30;;;;;;;96.63;54.90;;;;;;;8.64;43.99;95301.25;5112339;28;20250;-66
2024/01/23 11:04:57;;;;;;;99.27;54.80;;;;;;;8.49;43.88;95269.22;5111944;28;20210;-69
2024/01/23 11:07:29;;;;;;;101.37;55.23;;;;;;;8.68;43.86;95289.09;5112104;28;20196;-67
2024/01/23 11:10:04;;;;;;;96.67;53.50;;;;;;;8.71;44.11;95292.22;5111525;28;20198;-69
2024/01/23 11:12:42;;;;;;;96.90;56.30;;;;;;;8.70;44.15;95282.97;5112266;28;20203;-64
2024/01/23 11:15:15;;;;;;;100.53;54.43;;;;;;;8.77;43.93;95288.44;5111455;28;20209;-65
2024/01/23 11:17:42;;;;;;;93.93;54.90;;;;;;;8.77;43.97;95286.69;5111911;28;20196;-67
2024/01/23 11:20:13;;;;;;;101.53;55.40;;;;;;;8.79;43.93;95281.47;5111699;28;20193;-65
2024/01/23 11:22:40;;;;;;;100.30;56.13;;;;;;;8.52;44.07;95239.22;5111480;28;20279;-66